sensor_id;sensor_type;location;lat;lon;timestamp;pressure;altitude;pressure_sealevel;temperature;humidity
10688;BME280;5392;42.688;23.298;2023-12-14T12:32:43;94078.22;;;10.10;58.07
10688;BME280;5392;42.688;23.298;2023-12-14T12:35:09;94079.34;;;9.78;58.29
10688;BME280;5392;42.688;23.298;2023-12-14T12:37:35;94078.53;;;9.41;60.63
10688;BME280;5392;42.688;23.298;2023-12-14T12:40:00;94077.44;;;9.30;60.90
10688;BME280;5392;42.688;23.298;2023-12-14T12:43:46;94071.09;;;9.08;61.59
10688;BME280;5392;42.688;23.298;2023-12-14T12:46:12;94083.00;;;9.03;61.79
10688;BME280;5392;42.688;23.298;2023-12-14T12:48:37;94098.69;;;8.95;62.88
10688;BME280;5392;42.688;23.298;2023-12-14T12:51:03;94070.81;;;8.92;62.82
10688;BME280;5392;42.688;23.298;2023-12-14T12:53:28;94077.56;;;8.93;63.00
10688;BME280;5392;42.688;23.298;2023-12-14T12:55:54;94097.94;;;8.88;63.64
10688;BME280;5392;42.688;23.298;2023-12-14T12:58:19;94082.75;;;8.79;63.19
10688;BME280;5392;42.688;23.298;2023-12-14T13:00:45;94071.91;;;8.77;63.98
10688;BME280;5392;42.688;23.298;2023-12-14T13:03:10;94093.03;;;8.79;63.49
10688;BME280;5392;42.688;23.298;2023-12-14T13:05:36;94084.34;;;8.80;63.24
10688;BME280;5392;42.688;23.298;2023-12-14T13:08:01;94084.19;;;8.75;63.25
10688;BME280;5392;42.688;23.298;2023-12-14T13:10:27;94095.03;;;8.77;63.16
10688;BME280;5392;42.688;23.298;2023-12-14T13:12:53;94076.91;;;8.66;63.45
10688;BME280;5392;42.688;23.298;2023-12-14T13:15:19;94100.03;;;8.66;63.01
10688;BME280;5392;42.688;23.298;2023-12-14T13:17:44;94096.31;;;8.62;63.71
10688;BME280;5392;42.688;23.298;2023-12-14T13:20:10;94073.66;;;8.52;63.91
10688;BME280;5392;42.688;23.298;2023-12-14T13:22:35;94103.50;;;8.47;63.98
10688;BME280;5392;42.688;23.298;2023-12-14T13:25:01;94102.91;;;8.51;64.60
10688;BME280;5392;42.688;23.298;2023-12-14T13:27:28;94094.66;;;8.43;64.32
10688;BME280;5392;42.688;23.298;2023-12-14T13:29:53;94090.97;;;8.32;64.85
10688;BME280;5392;42.688;23.298;2023-12-14T13:32:19;94084.81;;;8.33;64.53
10688;BME280;5392;42.688;23.298;2023-12-14T13:34:44;94076.53;;;8.25;64.73
10688;BME280;5392;42.688;23.298;2023-12-14T13:37:10;94094.91;;;8.22;64.11
10688;BME280;5392;42.688;23.298;2023-12-14T13:39:36;94093.13;;;8.22;64.61
10688;BME280;5392;42.688;23.298;2023-12-14T13:42:06;94082.50;;;8.19;64.14
10688;BME280;5392;42.688;23.298;2023-12-14T13:44:32;94085.25;;;8.17;64.49
10688;BME280;5392;42.688;23.298;2023-12-14T13:47:04;94084.63;;;8.22;64.16
10688;BME280;5392;42.688;23.298;2023-12-14T13:49:29;94077.72;;;8.22;63.53
10688;BME280;5392;42.688;23.298;2023-12-14T13:51:55;94088.59;;;8.18;63.67
10688;BME280;5392;42.688;23.298;2023-12-14T13:54:20;94091.00;;;8.06;63.59
10688;BME280;5392;42.688;23.298;2023-12-14T13:56:46;94076.03;;;8.03;63.28
10688;BME280;5392;42.688;23.298;2023-12-14T13:59:11;94081.34;;;8.01;63.31
10688;BME280;5392;42.688;23.298;2023-12-14T14:01:37;94082.00;;;7.90;62.84
10688;BME280;5392;42.688;23.298;2023-12-14T14:04:03;94089.88;;;7.95;63.64
10688;BME280;5392;42.688;23.298;2023-12-14T14:06:29;94098.38;;;7.96;63.13
10688;BME280;5392;42.688;23.298;2023-12-14T14:08:54;94088.09;;;7.96;63.83
10688;BME280;5392;42.688;23.298;2023-12-14T14:11:21;94090.66;;;8.02;63.21
10688;BME280;5392;42.688;23.298;2023-12-14T14:13:48;94090.44;;;8.04;63.34
10688;BME280;5392;42.688;23.298;2023-12-14T14:16:13;94078.63;;;7.96;63.01
10688;BME280;5392;42.688;23.298;2023-12-14T14:18:39;94087.06;;;8.03;62.74
10688;BME280;5392;42.688;23.298;2023-12-14T14:21:05;94087.47;;;8.07;62.56
10688;BME280;5392;42.688;23.298;2023-12-14T14:23:34;94088.47;;;7.99;62.49
10688;BME280;5392;42.688;23.298;2023-12-14T14:26:00;94097.72;;;8.14;62.18
10688;BME280;5392;42.688;23.298;2023-12-14T14:28:25;94085.09;;;8.12;62.15
10688;BME280;5392;42.688;23.298;2023-12-14T14:30:51;94097.56;;;7.95;62.48
10688;BME280;5392;42.688;23.298;2023-12-14T14:33:17;94123.41;;;8.07;62.19
10688;BME280;5392;42.688;23.298;2023-12-14T14:35:46;94131.09;;;8.07;62.17
10688;BME280;5392;42.688;23.298;2023-12-14T14:38:13;94134.66;;;8.06;61.56
10688;BME280;5392;42.688;23.298;2023-12-14T14:40:38;94125.19;;;8.06;62.29
10688;BME280;5392;42.688;23.298;2023-12-14T14:43:04;94092.81;;;8.05;62.22
10688;BME280;5392;42.688;23.298;2023-12-14T14:45:29;94083.16;;;8.01;62.08
10688;BME280;5392;42.688;23.298;2023-12-14T14:47:55;94101.50;;;8.04;62.62
10688;BME280;5392;42.688;23.298;2023-12-14T14:50:21;94122.41;;;8.01;62.75
10688;BME280;5392;42.688;23.298;2023-12-14T14:52:47;94124.81;;;8.03;62.77
10688;BME280;5392;42.688;23.298;2023-12-14T14:55:13;94099.16;;;7.96;63.66
10688;BME280;5392;42.688;23.298;2023-12-14T14:57:38;94096.19;;;7.99;63.78
10688;BME280;5392;42.688;23.298;2023-12-14T15:00:04;94114.31;;;8.04;65.05
10688;BME280;5392;42.688;23.298;2023-12-14T15:02:30;94103.47;;;8.02;64.50
10688;BME280;5392;42.688;23.298;2023-12-14T15:04:55;94097.19;;;7.98;64.60
10688;BME280;5392;42.688;23.298;2023-12-14T15:07:21;94104.31;;;7.90;64.88
10688;BME280;5392;42.688;23.298;2023-12-14T15:09:46;94107.69;;;7.77;66.92
10688;BME280;5392;42.688;23.298;2023-12-14T15:12:12;94106.13;;;7.83;65.73
10688;BME280;5392;42.688;23.298;2023-12-14T15:14:37;94104.19;;;7.65;66.46
10688;BME280;5392;42.688;23.298;2023-12-14T15:17:03;94115.78;;;7.68;66.93
10688;BME280;5392;42.688;23.298;2023-12-14T15:19:28;94118.75;;;7.71;66.33
10688;BME280;5392;42.688;23.298;2023-12-14T15:21:54;94119.19;;;7.55;66.17
10688;BME280;5392;42.688;23.298;2023-12-14T15:24:20;94109.13;;;7.54;67.75
10688;BME280;5392;42.688;23.298;2023-12-14T15:26:45;94103.00;;;7.55;67.39
10688;BME280;5392;42.688;23.298;2023-12-14T15:29:11;94110.50;;;7.56;67.05
10688;BME280;5392;42.688;23.298;2023-12-14T15:31:36;94107.94;;;7.63;67.32
10688;BME280;5392;42.688;23.298;2023-12-14T15:34:02;94114.84;;;7.56;67.68
10688;BME280;5392;42.688;23.298;2023-12-14T15:36:28;94123.94;;;7.39;68.33
10688;BME280;5392;42.688;23.298;2023-12-14T15:38:55;94142.06;;;7.44;67.88
10688;BME280;5392;42.688;23.298;2023-12-14T15:41:21;94152.91;;;7.46;67.85
10688;BME280;5392;42.688;23.298;2023-12-14T15:43:46;94161.59;;;7.38;68.23
10688;BME280;5392;42.688;23.298;2023-12-14T15:46:12;94175.59;;;7.42;68.83
10688;BME280;5392;42.688;23.298;2023-12-14T15:48:37;94188.63;;;7.47;68.30
10688;BME280;5392;42.688;23.298;2023-12-14T15:51:04;94160.59;;;7.39;69.20
10688;BME280;5392;42.688;23.298;2023-12-14T15:53:30;94145.22;;;7.39;69.10
10688;BME280;5392;42.688;23.298;2023-12-14T15:55:56;94139.50;;;7.44;69.01
10688;BME280;5392;42.688;23.298;2023-12-14T15:58:22;94135.38;;;7.43;69.25
10688;BME280;5392;42.688;23.298;2023-12-14T16:00:48;94146.00;;;7.40;69.49
10688;BME280;5392;42.688;23.298;2023-12-14T16:03:13;94156.66;;;7.36;69.13
10688;BME280;5392;42.688;23.298;2023-12-14T16:05:39;94171.88;;;7.25;69.71
10688;BME280;5392;42.688;23.298;2023-12-14T16:08:05;94177.94;;;7.11;70.88
10688;BME280;5392;42.688;23.298;2023-12-14T16:10:30;94197.06;;;7.08;71.54
10688;BME280;5392;42.688;23.298;2023-12-14T16:12:56;94190.38;;;7.20;71.85
10688;BME280;5392;42.688;23.298;2023-12-14T16:15:21;94161.97;;;7.09;72.40
10688;BME280;5392;42.688;23.298;2023-12-14T16:17:48;94163.97;;;7.13;71.86
10688;BME280;5392;42.688;23.298;2023-12-14T16:20:14;94178.53;;;7.19;72.52
10688;BME280;5392;42.688;23.298;2023-12-14T16:22:41;94183.66;;;7.19;72.40
10688;BME280;5392;42.688;23.298;2023-12-14T16:25:07;94203.78;;;7.09;73.20
10688;BME280;5392;42.688;23.298;2023-12-14T16:27:35;94206.72;;;7.06;74.12
10688;BME280;5392;42.688;23.298;2023-12-14T16:30:01;94194.88;;;6.99;74.33
10688;BME280;5392;42.688;23.298;2023-12-14T16:32:26;94211.63;;;6.95;76.14
10688;BME280;5392;42.688;23.298;2023-12-14T16:34:52;94208.09;;;6.96;76.25
10688;BME280;5392;42.688;23.298;2023-12-14T16:37:18;94204.28;;;6.85;77.50
10688;BME280;5392;42.688;23.298;2023-12-14T16:39:44;94218.31;;;6.89;77.19
10688;BME280;5392;42.688;23.298;2023-12-14T16:42:10;94219.72;;;6.92;76.92
10688;BME280;5392;42.688;23.298;2023-12-14T16:44:35;94239.41;;;6.85;77.91
10688;BME280;5392;42.688;23.298;2023-12-14T16:47:06;94262.22;;;6.80;79.38
10688;BME280;5392;42.688;23.298;2023-12-14T16:49:35;94264.75;;;6.73;80.00
10688;BME280;5392;42.688;23.298;2023-12-14T16:52:07;94284.81;;;6.70;79.69
10688;BME280;5392;42.688;23.298;2023-12-14T16:54:33;94278.44;;;6.52;79.88
10688;BME280;5392;42.688;23.298;2023-12-14T16:56:59;94276.50;;;6.61;80.00
10688;BME280;5392;42.688;23.298;2023-12-14T16:59:27;94267.63;;;6.57;80.45
10688;BME280;5392;42.688;23.298;2023-12-14T17:01:53;94278.25;;;6.54;80.98
10688;BME280;5392;42.688;23.298;2023-12-14T17:04:18;94281.44;;;6.56;81.81
10688;BME280;5392;42.688;23.298;2023-12-14T17:06:44;94284.00;;;6.56;81.12
10688;BME280;5392;42.688;23.298;2023-12-14T17:09:10;94280.03;;;6.53;81.25
10688;BME280;5392;42.688;23.298;2023-12-14T17:11:35;94284.34;;;6.46;81.83
10688;BME280;5392;42.688;23.298;2023-12-14T17:14:01;94287.28;;;6.50;82.79
10688;BME280;5392;42.688;23.298;2023-12-14T17:16:26;94290.06;;;6.48;82.75
10688;BME280;5392;42.688;23.298;2023-12-14T17:18:52;94294.16;;;6.43;83.01
10688;BME280;5392;42.688;23.298;2023-12-14T17:21:22;94295.75;;;6.44;83.44
10688;BME280;5392;42.688;23.298;2023-12-14T17:23:48;94313.84;;;6.42;83.08
10688;BME280;5392;42.688;23.298;2023-12-14T17:26:14;94310.13;;;6.45;82.62
10688;BME280;5392;42.688;23.298;2023-12-14T17:28:47;94305.41;;;6.48;82.83
10688;BME280;5392;42.688;23.298;2023-12-14T17:31:14;94292.59;;;6.42;82.42
10688;BME280;5392;42.688;23.298;2023-12-14T17:33:39;94301.75;;;6.30;82.77
10688;BME280;5392;42.688;23.298;2023-12-14T17:36:05;94309.22;;;6.25;83.90
10688;BME280;5392;42.688;23.298;2023-12-14T17:38:31;94312.97;;;6.29;84.51
10688;BME280;5392;42.688;23.298;2023-12-14T17:40:56;94325.63;;;6.37;84.06
10688;BME280;5392;42.688;23.298;2023-12-14T17:43:24;94341.78;;;6.37;83.91
10688;BME280;5392;42.688;23.298;2023-12-14T17:45:49;94335.81;;;6.30;84.33
10688;BME280;5392;42.688;23.298;2023-12-14T17:48:15;94335.63;;;6.32;84.47
10688;BME280;5392;42.688;23.298;2023-12-14T17:50:40;94348.66;;;6.37;83.88
10688;BME280;5392;42.688;23.298;2023-12-14T17:53:06;94349.41;;;6.31;84.68
10688;BME280;5392;42.688;23.298;2023-12-14T17:55:32;94349.09;;;6.40;83.87
10688;BME280;5392;42.688;23.298;2023-12-14T17:57:57;94346.91;;;6.37;84.21
10688;BME280;5392;42.688;23.298;2023-12-14T18:00:23;94336.06;;;6.35;84.03
10688;BME280;5392;42.688;23.298;2023-12-14T18:02:48;94345.50;;;6.35;83.95
10688;BME280;5392;42.688;23.298;2023-12-14T18:05:14;94344.94;;;6.39;83.47
10688;BME280;5392;42.688;23.298;2023-12-14T18:07:39;94344.69;;;6.34;83.73
10688;BME280;5392;42.688;23.298;2023-12-14T18:10:05;94337.41;;;6.31;84.76
10688;BME280;5392;42.688;23.298;2023-12-14T18:12:33;94349.47;;;6.37;84.46
10688;BME280;5392;42.688;23.298;2023-12-14T18:14:59;94335.88;;;6.37;83.93
10688;BME280;5392;42.688;23.298;2023-12-14T18:17:24;94326.63;;;6.36;84.61
10688;BME280;5392;42.688;23.298;2023-12-14T18:19:50;94347.31;;;6.41;84.46
10688;BME280;5392;42.688;23.298;2023-12-14T18:22:20;94339.41;;;6.36;84.49
10688;BME280;5392;42.688;23.298;2023-12-14T18:24:46;94351.59;;;6.34;84.81
10688;BME280;5392;42.688;23.298;2023-12-14T18:27:11;94360.25;;;6.33;85.09
10688;BME280;5392;42.688;23.298;2023-12-14T18:29:37;94369.88;;;6.31;85.12
10688;BME280;5392;42.688;23.298;2023-12-14T18:32:03;94365.97;;;6.35;84.33
10688;BME280;5392;42.688;23.298;2023-12-14T18:34:29;94369.69;;;6.32;85.07
10688;BME280;5392;42.688;23.298;2023-12-14T18:36:54;94369.88;;;6.31;85.14
10688;BME280;5392;42.688;23.298;2023-12-14T18:39:19;94375.97;;;6.30;84.26
10688;BME280;5392;42.688;23.298;2023-12-14T18:41:45;94369.34;;;6.35;84.60
10688;BME280;5392;42.688;23.298;2023-12-14T18:44:10;94359.47;;;6.32;83.84
10688;BME280;5392;42.688;23.298;2023-12-14T18:46:36;94353.50;;;6.25;84.97
10688;BME280;5392;42.688;23.298;2023-12-14T18:49:01;94353.28;;;6.20;84.75
10688;BME280;5392;42.688;23.298;2023-12-14T18:51:27;94355.66;;;6.22;84.31
10688;BME280;5392;42.688;23.298;2023-12-14T18:53:52;94347.78;;;6.23;84.28
10688;BME280;5392;42.688;23.298;2023-12-14T18:56:18;94339.09;;;6.18;85.23
10688;BME280;5392;42.688;23.298;2023-12-14T18:58:44;94339.25;;;6.16;84.75
10688;BME280;5392;42.688;23.298;2023-12-14T19:01:11;94353.78;;;6.09;85.05
10688;BME280;5392;42.688;23.298;2023-12-14T19:03:37;94358.72;;;6.11;85.67
10688;BME280;5392;42.688;23.298;2023-12-14T19:06:06;94363.47;;;6.14;84.90
10688;BME280;5392;42.688;23.298;2023-12-14T19:08:35;94371.75;;;6.16;85.99
10688;BME280;5392;42.688;23.298;2023-12-14T19:11:00;94376.19;;;6.07;85.83
10688;BME280;5392;42.688;23.298;2023-12-14T19:13:26;94379.00;;;6.12;85.84
10688;BME280;5392;42.688;23.298;2023-12-14T19:15:51;94376.06;;;6.15;85.81
10688;BME280;5392;42.688;23.298;2023-12-14T19:18:17;94378.03;;;6.13;84.65
10688;BME280;5392;42.688;23.298;2023-12-14T19:20:42;94373.88;;;6.12;85.00
10688;BME280;5392;42.688;23.298;2023-12-14T19:23:08;94381.53;;;6.12;85.67
10688;BME280;5392;42.688;23.298;2023-12-14T19:25:33;94390.03;;;6.13;86.13
10688;BME280;5392;42.688;23.298;2023-12-14T19:27:59;94398.44;;;6.07;86.27
10688;BME280;5392;42.688;23.298;2023-12-14T19:30:24;94405.06;;;6.01;85.06
10688;BME280;5392;42.688;23.298;2023-12-14T19:32:50;94417.25;;;5.99;85.67
10688;BME280;5392;42.688;23.298;2023-12-14T19:35:17;94422.56;;;5.98;86.07
10688;BME280;5392;42.688;23.298;2023-12-14T19:37:42;94424.56;;;6.02;86.34
10688;BME280;5392;42.688;23.298;2023-12-14T19:40:11;94414.50;;;6.01;86.08
10688;BME280;5392;42.688;23.298;2023-12-14T19:42:37;94417.25;;;5.99;85.63
10688;BME280;5392;42.688;23.298;2023-12-14T19:45:02;94427.91;;;6.03;86.31
10688;BME280;5392;42.688;23.298;2023-12-14T19:47:28;94440.28;;;5.99;85.81
10688;BME280;5392;42.688;23.298;2023-12-14T19:49:53;94438.06;;;5.96;86.03
10688;BME280;5392;42.688;23.298;2023-12-14T19:52:24;94451.66;;;5.97;85.78
10688;BME280;5392;42.688;23.298;2023-12-14T19:54:49;94457.50;;;5.91;86.59
10688;BME280;5392;42.688;23.298;2023-12-14T19:57:15;94470.13;;;5.92;86.58
10688;BME280;5392;42.688;23.298;2023-12-14T19:59:40;94471.03;;;5.84;85.93
10688;BME280;5392;42.688;23.298;2023-12-14T20:02:07;94464.41;;;5.75;87.03
10688;BME280;5392;42.688;23.298;2023-12-14T20:04:32;94460.50;;;5.79;86.75
10688;BME280;5392;42.688;23.298;2023-12-14T20:06:58;94456.00;;;5.81;86.41
10688;BME280;5392;42.688;23.298;2023-12-14T20:09:24;94464.47;;;5.82;86.50
10688;BME280;5392;42.688;23.298;2023-12-14T20:11:49;94461.06;;;5.75;86.86
10688;BME280;5392;42.688;23.298;2023-12-14T20:14:15;94444.38;;;5.79;86.06
10688;BME280;5392;42.688;23.298;2023-12-14T20:16:47;94450.09;;;5.81;86.67
10688;BME280;5392;42.688;23.298;2023-12-14T20:19:13;94452.47;;;5.82;86.93
10688;BME280;5392;42.688;23.298;2023-12-14T20:21:39;94475.94;;;5.71;87.18
10688;BME280;5392;42.688;23.298;2023-12-14T20:24:05;94483.28;;;5.74;86.59
10688;BME280;5392;42.688;23.298;2023-12-14T20:26:32;94480.91;;;5.73;86.63
10688;BME280;5392;42.688;23.298;2023-12-14T20:28:57;94465.03;;;5.77;86.67
10688;BME280;5392;42.688;23.298;2023-12-14T20:31:23;94460.25;;;5.89;86.53
10688;BME280;5392;42.688;23.298;2023-12-14T20:33:49;94450.09;;;5.96;85.38
10688;BME280;5392;42.688;23.298;2023-12-14T20:36:15;94452.88;;;6.01;85.08
10688;BME280;5392;42.688;23.298;2023-12-14T20:38:40;94460.75;;;5.99;85.84
10688;BME280;5392;42.688;23.298;2023-12-14T20:41:06;94459.94;;;5.99;85.09
10688;BME280;5392;42.688;23.298;2023-12-14T20:43:32;94458.78;;;6.01;84.73
10688;BME280;5392;42.688;23.298;2023-12-14T20:45:58;94456.38;;;5.93;85.61
10688;BME280;5392;42.688;23.298;2023-12-14T20:48:23;94456.53;;;5.92;85.24
10688;BME280;5392;42.688;23.298;2023-12-14T20:50:49;94468.34;;;5.93;86.13
10688;BME280;5392;42.688;23.298;2023-12-14T20:53:16;94470.91;;;5.93;85.20
10688;BME280;5392;42.688;23.298;2023-12-14T20:55:41;94482.97;;;5.99;85.88
10688;BME280;5392;42.688;23.298;2023-12-14T20:58:07;94477.25;;;5.97;85.45
10688;BME280;5392;42.688;23.298;2023-12-14T21:00:33;94496.75;;;5.98;84.83
10688;BME280;5392;42.688;23.298;2023-12-14T21:02:59;94500.38;;;5.88;85.48
10688;BME280;5392;42.688;23.298;2023-12-14T21:05:24;94503.63;;;5.97;85.86
10688;BME280;5392;42.688;23.298;2023-12-14T21:07:50;94512.03;;;5.91;85.23
10688;BME280;5392;42.688;23.298;2023-12-14T21:10:16;94510.00;;;5.86;85.39
10688;BME280;5392;42.688;23.298;2023-12-14T21:12:41;94504.59;;;5.96;85.15
10688;BME280;5392;42.688;23.298;2023-12-14T21:15:07;94499.59;;;5.88;84.86
10688;BME280;5392;42.688;23.298;2023-12-14T21:17:34;94519.31;;;5.94;84.48
10688;BME280;5392;42.688;23.298;2023-12-14T21:20:00;94515.47;;;5.98;83.93
10688;BME280;5392;42.688;23.298;2023-12-14T21:22:26;94503.75;;;5.89;84.25
10688;BME280;5392;42.688;23.298;2023-12-14T21:24:52;94489.59;;;5.78;84.29
10688;BME280;5392;42.688;23.298;2023-12-14T21:27:25;94494.66;;;5.86;84.06
10688;BME280;5392;42.688;23.298;2023-12-14T21:30:14;94503.91;;;5.87;84.10
10688;BME280;5392;42.688;23.298;2023-12-14T21:32:41;94509.47;;;5.91;84.75
10688;BME280;5392;42.688;23.298;2023-12-14T21:35:07;94514.41;;;5.93;84.50
10688;BME280;5392;42.688;23.298;2023-12-14T21:37:33;94523.22;;;5.90;84.96
10688;BME280;5392;42.688;23.298;2023-12-14T21:39:58;94531.25;;;5.87;84.21
10688;BME280;5392;42.688;23.298;2023-12-14T21:42:24;94524.75;;;5.84;85.06
10688;BME280;5392;42.688;23.298;2023-12-14T21:44:49;94538.81;;;5.80;84.23
10688;BME280;5392;42.688;23.298;2023-12-14T21:47:15;94554.34;;;5.79;84.48
10688;BME280;5392;42.688;23.298;2023-12-14T21:49:40;94550.75;;;5.73;85.10
10688;BME280;5392;42.688;23.298;2023-12-14T21:52:06;94542.13;;;5.60;84.97
10688;BME280;5392;42.688;23.298;2023-12-14T21:54:31;94535.75;;;5.70;85.20
10688;BME280;5392;42.688;23.298;2023-12-14T21:56:57;94553.47;;;5.72;85.27
10688;BME280;5392;42.688;23.298;2023-12-14T21:59:22;94557.97;;;5.70;85.19
10688;BME280;5392;42.688;23.298;2023-12-14T22:01:48;94566.53;;;5.77;85.48
10688;BME280;5392;42.688;23.298;2023-12-14T22:04:13;94563.78;;;5.78;84.76
10688;BME280;5392;42.688;23.298;2023-12-14T22:06:39;94555.59;;;5.68;84.94
10688;BME280;5392;42.688;23.298;2023-12-14T22:09:04;94558.88;;;5.62;84.77
10688;BME280;5392;42.688;23.298;2023-12-14T22:11:30;94576.31;;;5.59;84.94
10688;BME280;5392;42.688;23.298;2023-12-14T22:13:55;94571.38;;;5.57;84.86
10688;BME280;5392;42.688;23.298;2023-12-14T22:16:21;94589.97;;;5.51;85.57
10688;BME280;5392;42.688;23.298;2023-12-14T22:18:46;94610.16;;;5.46;85.55
10688;BME280;5392;42.688;23.298;2023-12-14T22:21:12;94614.13;;;5.49;86.00
10688;BME280;5392;42.688;23.298;2023-12-14T22:23:38;94607.25;;;5.49;85.83
10688;BME280;5392;42.688;23.298;2023-12-14T22:26:03;94598.34;;;5.45;85.03
10688;BME280;5392;42.688;23.298;2023-12-14T22:28:29;94599.84;;;5.40;84.84
10688;BME280;5392;42.688;23.298;2023-12-14T22:30:54;94606.63;;;5.33;84.50
10688;BME280;5392;42.688;23.298;2023-12-14T22:33:20;94612.53;;;5.33;85.41
10688;BME280;5392;42.688;23.298;2023-12-14T22:35:46;94614.28;;;5.33;84.35
10688;BME280;5392;42.688;23.298;2023-12-14T22:38:11;94609.88;;;5.41;84.40
10688;BME280;5392;42.688;23.298;2023-12-14T22:40:37;94602.47;;;5.32;83.42
10688;BME280;5392;42.688;23.298;2023-12-14T22:43:02;94602.63;;;5.15;83.76
10688;BME280;5392;42.688;23.298;2023-12-14T22:45:28;94601.03;;;5.14;83.84
10688;BME280;5392;42.688;23.298;2023-12-14T22:47:55;94608.59;;;5.08;83.72
10688;BME280;5392;42.688;23.298;2023-12-14T22:50:21;94593.56;;;5.13;83.30
10688;BME280;5392;42.688;23.298;2023-12-14T22:52:46;94598.81;;;5.11;84.10
10688;BME280;5392;42.688;23.298;2023-12-14T22:55:12;94594.59;;;5.04;83.11
10688;BME280;5392;42.688;23.298;2023-12-14T22:57:40;94598.56;;;5.06;83.62
10688;BME280;5392;42.688;23.298;2023-12-14T23:00:06;94592.81;;;5.04;82.88
10688;BME280;5392;42.688;23.298;2023-12-14T23:02:37;94588.22;;;5.00;82.87
10688;BME280;5392;42.688;23.298;2023-12-14T23:05:03;94588.34;;;5.06;83.12
10688;BME280;5392;42.688;23.298;2023-12-14T23:07:29;94579.25;;;5.04;82.72
10688;BME280;5392;42.688;23.298;2023-12-14T23:09:54;94591.25;;;5.03;83.20
10688;BME280;5392;42.688;23.298;2023-12-14T23:12:20;94595.66;;;4.87;84.01
10688;BME280;5392;42.688;23.298;2023-12-14T23:14:46;94609.25;;;4.87;83.91
10688;BME280;5392;42.688;23.298;2023-12-14T23:17:12;94605.38;;;4.91;83.43
10688;BME280;5392;42.688;23.298;2023-12-14T23:19:37;94604.47;;;4.84;84.22
10688;BME280;5392;42.688;23.298;2023-12-14T23:22:03;94605.63;;;4.82;84.05
10688;BME280;5392;42.688;23.298;2023-12-14T23:24:29;94606.00;;;4.93;84.14
10688;BME280;5392;42.688;23.298;2023-12-14T23:26:54;94610.44;;;4.99;83.84
10688;BME280;5392;42.688;23.298;2023-12-14T23:29:20;94607.50;;;5.02;83.35
10688;BME280;5392;42.688;23.298;2023-12-14T23:31:45;94611.16;;;5.08;83.75
10688;BME280;5392;42.688;23.298;2023-12-14T23:34:11;94608.13;;;5.04;83.11
10688;BME280;5392;42.688;23.298;2023-12-14T23:36:36;94612.91;;;5.07;83.68
10688;BME280;5392;42.688;23.298;2023-12-14T23:39:02;94617.31;;;5.13;83.81
10688;BME280;5392;42.688;23.298;2023-12-14T23:41:27;94619.63;;;5.08;83.43
10688;BME280;5392;42.688;23.298;2023-12-14T23:43:53;94618.31;;;5.12;83.28
10688;BME280;5392;42.688;23.298;2023-12-14T23:46:20;94621.84;;;5.26;83.44
10688;BME280;5392;42.688;23.298;2023-12-14T23:48:46;94626.69;;;5.36;82.70
10688;BME280;5392;42.688;23.298;2023-12-14T23:51:13;94628.38;;;5.29;82.47
10688;BME280;5392;42.688;23.298;2023-12-14T23:53:39;94633.50;;;5.29;82.67
10688;BME280;5392;42.688;23.298;2023-12-14T23:56:05;94639.03;;;5.18;82.88
10688;BME280;5392;42.688;23.298;2023-12-14T23:58:31;94633.13;;;5.17;83.54
